Time;durP1;ratioP1;P1;durP2;ratioP2;P2;SDS_P1;SDS_P2;PMS_P1;PMS_P2;Temp;Humidity;BMP_temperature;BMP_pressure;BME280_temperature;BME280_humidity;BME280_pressure;Samples;Min_cycle;Max_cycle;Signal;HPM_P1;HPM_P2
2022/10/22 00:00:45;;;;;;;20.47;4.20;;;;;;;;;;1751704;82;27042;-78
2022/10/22 00:03:13;;;;;;;14.63;3.63;;;;;;;;;;1816069;79;26285;-78
2022/10/22 00:05:42;;;;;;;18.87;4.60;;;;;;;;;;1737683;80;26325;-78
2022/10/22 00:08:13;;;;;;;18.73;4.43;;;;;;;;;;1723557;81;26359;-77
2022/10/22 00:10:41;;;;;;;12.57;3.47;;;;;;;;;;1750601;82;26706;-78
2022/10/22 00:13:11;;;;;;;14.97;4.37;;;;;;;;;;1779764;80;26335;-77
2022/10/22 00:15:40;;;;;;;17.33;4.90;;;;;;;;;;1778259;79;26361;-77
2022/10/22 00:18:09;;;;;;;23.77;4.90;;;;;;;;;;1778020;80;26243;-77
2022/10/22 00:20:37;;;;;;;20.73;4.50;;;;;;;;;;1767731;79;26348;-77
2022/10/22 00:23:07;;;;;;;20.43;4.33;;;;;;;;;;1735579;80;27431;-78
2022/10/22 00:25:35;;;;;;;15.33;4.60;;;;;;;;;;1748980;82;26299;-78
2022/10/22 00:28:04;;;;;;;18.07;4.63;;;;;;;;;;1744000;82;26311;-78
2022/10/22 00:30:32;;;;;;;22.73;4.77;;;;;;;;;;1758099;80;26251;-77
2022/10/22 00:33:01;;;;;;;26.40;5.20;;;;;;;;;;1757425;80;26367;-77
2022/10/22 00:35:30;;;;;;;18.30;4.40;;;;;;;;;;1749118;82;26374;-77
2022/10/22 00:37:59;;;;;;;16.77;3.83;;;;;;;;;;1744213;82;27392;-78
2022/10/22 00:40:28;;;;;;;22.27;4.70;;;;;;;;;;1778393;80;27497;-78
2022/10/22 00:42:57;;;;;;;20.47;3.60;;;;;;;;;;1733236;80;26286;-78
2022/10/22 00:45:26;;;;;;;22.87;4.50;;;;;;;;;;1748870;82;26892;-78
2022/10/22 00:47:57;;;;;;;17.23;4.33;;;;;;;;;;1744463;82;26409;-78
2022/10/22 00:50:28;;;;;;;24.13;4.77;;;;;;;;;;1794570;80;26890;-78
2022/10/22 00:52:57;;;;;;;20.53;4.43;;;;;;;;;;1794734;80;26842;-78
2022/10/22 00:55:26;;;;;;;26.73;5.40;;;;;;;;;;1792586;79;26277;-77
2022/10/22 00:57:56;;;;;;;17.50;3.83;;;;;;;;;;1792741;79;26274;-77
2022/10/22 01:00:25;;;;;;;19.97;4.27;;;;;;;;;;1792901;79;26278;-77
2022/10/22 01:02:54;;;;;;;22.53;4.47;;;;;;;;;;1814270;79;26384;-78
2022/10/22 01:05:23;;;;;;;19.83;4.80;;;;;;;;;;1768242;79;26338;-78
2022/10/22 01:07:53;;;;;;;20.37;4.20;;;;;;;;;;1814161;79;26826;-79
2022/10/22 01:10:27;;;;;;;14.80;3.93;;;;;;;;;;1814312;79;26383;-78
2022/10/22 01:12:59;;;;;;;20.00;4.20;;;;;;;;;;1814305;79;26282;-79
2022/10/22 01:15:31;;;;;;;16.80;3.53;;;;;;;;;;1793055;79;26360;-78
2022/10/22 01:18:01;;;;;;;15.50;4.10;;;;;;;;;;1792830;79;26408;-78
2022/10/22 01:20:42;;;;;;;16.23;3.73;;;;;;;;;;1730539;82;26330;-78
2022/10/22 01:23:13;;;;;;;16.50;3.77;;;;;;;;;;1728590;82;26319;-78
2022/10/22 01:25:43;;;;;;;17.80;4.23;;;;;;;;;;1729232;82;26340;-78
2022/10/22 01:28:13;;;;;;;17.47;4.30;;;;;;;;;;1757545;80;26314;-78
2022/10/22 01:30:43;;;;;;;16.13;4.17;;;;;;;;;;1720985;81;26283;-78
2022/10/22 01:33:13;;;;;;;11.93;3.43;;;;;;;;;;1748990;82;26373;-78
2022/10/22 01:35:42;;;;;;;16.70;3.63;;;;;;;;;;1729664;82;26414;-78
2022/10/22 01:38:13;;;;;;;15.57;4.20;;;;;;;;;;1759504;80;26204;-79
2022/10/22 01:40:42;;;;;;;10.87;3.27;;;;;;;;;;1816178;79;26319;-78
2022/10/22 01:43:11;;;;;;;16.37;3.93;;;;;;;;;;1795009;79;26608;-79
2022/10/22 01:45:41;;;;;;;15.27;4.17;;;;;;;;;;1737152;80;26304;-79
2022/10/22 01:48:12;;;;;;;16.20;3.73;;;;;;;;;;1755317;82;26340;-78
2022/10/22 01:50:45;;;;;;;12.63;2.73;;;;;;;;;;1802296;79;26247;-78
2022/10/22 01:53:18;;;;;;;15.77;3.57;;;;;;;;;;1780498;80;26249;-79
2022/10/22 01:55:50;;;;;;;15.10;3.47;;;;;;;;;;1745976;82;26318;-79
2022/10/22 01:58:22;;;;;;;16.33;3.83;;;;;;;;;;1758370;80;26840;-79
2022/10/22 02:00:52;;;;;;;14.87;3.60;;;;;;;;;;1793262;79;26278;-79
2022/10/22 02:03:22;;;;;;;17.57;4.13;;;;;;;;;;1757269;80;26325;-79
2022/10/22 02:05:53;;;;;;;12.83;2.93;;;;;;;;;;1744593;81;26318;-79
2022/10/22 02:08:24;;;;;;;11.47;3.27;;;;;;;;;;1761882;81;26810;-79
2022/10/22 02:10:53;;;;;;;12.13;3.47;;;;;;;;;;1744093;81;26376;-79
2022/10/22 02:13:23;;;;;;;14.80;2.87;;;;;;;;;;1749468;82;26303;-79
2022/10/22 02:15:53;;;;;;;7.90;2.37;;;;;;;;;;1723900;82;26414;-79
2022/10/22 02:18:24;;;;;;;9.87;2.10;;;;;;;;;;1778424;78;26310;-79
2022/10/22 02:20:53;;;;;;;11.47;2.53;;;;;;;;;;1768985;79;26286;-79
2022/10/22 02:23:23;;;;;;;9.77;2.47;;;;;;;;;;1793637;79;26266;-79
2022/10/22 02:25:53;;;;;;;8.60;2.23;;;;;;;;;;1814373;79;26352;-79
2022/10/22 02:28:24;;;;;;;9.90;2.60;;;;;;;;;;1792558;79;26286;-79
2022/10/22 02:30:54;;;;;;;12.33;2.43;;;;;;;;;;1793495;79;26352;-79
2022/10/22 02:33:24;;;;;;;10.97;2.80;;;;;;;;;;1758280;80;26363;-79
2022/10/22 02:35:53;;;;;;;12.30;3.37;;;;;;;;;;1761654;80;26573;-79
2022/10/22 02:38:23;;;;;;;9.13;2.50;;;;;;;;;;1743612;81;26369;-79
2022/10/22 02:40:51;;;;;;;9.70;2.77;;;;;;;;;;1748767;82;26300;-79
2022/10/22 02:43:19;;;;;;;6.60;2.17;;;;;;;;;;1729510;82;26335;-78
2022/10/22 02:45:49;;;;;;;7.30;2.30;;;;;;;;;;1814626;79;26274;-79
2022/10/22 02:48:18;;;;;;;7.53;2.30;;;;;;;;;;1793022;79;26707;-79
2022/10/22 02:50:46;;;;;;;6.67;2.23;;;;;;;;;;1758928;80;26375;-79
2022/10/22 02:53:15;;;;;;;7.40;2.20;;;;;;;;;;1744512;82;26340;-78
2022/10/22 02:55:44;;;;;;;5.87;2.17;;;;;;;;;;1757899;80;26246;-79
2022/10/22 02:58:12;;;;;;;7.00;2.03;;;;;;;;;;1757712;80;26297;-79
2022/10/22 03:00:41;;;;;;;7.47;1.87;;;;;;;;;;1744232;82;26378;-79
2022/10/22 03:03:10;;;;;;;6.33;1.80;;;;;;;;;;1781709;80;26279;-80
2022/10/22 03:05:40;;;;;;;10.67;2.60;;;;;;;;;;1778787;80;26766;-79
2022/10/22 03:08:09;;;;;;;8.17;2.10;;;;;;;;;;1744405;82;26855;-79
2022/10/22 03:10:39;;;;;;;6.43;1.77;;;;;;;;;;1757918;80;26626;-79
2022/10/22 03:13:07;;;;;;;4.97;1.50;;;;;;;;;;1778998;80;26816;-79
2022/10/22 03:15:35;;;;;;;8.50;2.07;;;;;;;;;;1704282;82;26356;-79
2022/10/22 03:18:05;;;;;;;6.93;1.80;;;;;;;;;;1759248;79;26422;-79
2022/10/22 03:20:34;;;;;;;7.47;2.00;;;;;;;;;;1816126;79;26293;-79
2022/10/22 03:23:04;;;;;;;7.07;1.83;;;;;;;;;;1795474;79;26238;-79
2022/10/22 03:25:34;;;;;;;8.00;1.80;;;;;;;;;;1771863;79;26226;-79
2022/10/22 03:28:04;;;;;;;5.97;1.80;;;;;;;;;;1795383;79;26841;-79
2022/10/22 03:30:33;;;;;;;6.53;1.70;;;;;;;;;;1780173;80;26735;-79
2022/10/22 03:33:03;;;;;;;7.60;2.10;;;;;;;;;;1746197;82;26260;-79
2022/10/22 03:35:32;;;;;;;7.50;1.80;;;;;;;;;;1796568;80;26297;-79
2022/10/22 03:38:01;;;;;;;5.70;1.50;;;;;;;;;;1795387;80;26286;-79
2022/10/22 03:40:29;;;;;;;6.70;2.00;;;;;;;;;;1775342;80;26365;-78
2022/10/22 03:42:59;;;;;;;4.50;1.53;;;;;;;;;;1757536;80;26297;-79
2022/10/22 03:45:27;;;;;;;7.33;1.70;;;;;;;;;;1748878;82;26311;-79
2022/10/22 03:47:56;;;;;;;10.07;2.20;;;;;;;;;;1744350;82;26342;-79
2022/10/22 03:50:25;;;;;;;6.63;2.00;;;;;;;;;;1781285;80;26308;-78
2022/10/22 03:52:53;;;;;;;8.17;1.77;;;;;;;;;;1793384;79;26274;-78
2022/10/22 03:55:22;;;;;;;8.67;1.97;;;;;;;;;;1769105;79;26254;-79
2022/10/22 03:57:52;;;;;;;8.37;2.17;;;;;;;;;;1814381;79;26278;-79
2022/10/22 04:00:21;;;;;;;8.93;2.10;;;;;;;;;;1806687;79;611909;-79
2022/10/22 04:02:49;;;;;;;13.90;2.40;;;;;;;;;;1814303;79;26322;-78
2022/10/22 04:05:19;;;;;;;13.33;2.10;;;;;;;;;;1793465;79;26768;-79
2022/10/22 04:07:49;;;;;;;10.47;2.20;;;;;;;;;;1814486;79;26333;-79
2022/10/22 04:10:17;;;;;;;9.07;2.10;;;;;;;;;;1814340;79;27406;-79
2022/10/22 04:12:48;;;;;;;12.93;2.87;;;;;;;;;;1814314;79;26289;-79
2022/10/22 04:15:17;;;;;;;8.00;2.17;;;;;;;;;;1814236;79;26580;-79
2022/10/22 04:17:46;;;;;;;10.90;2.30;;;;;;;;;;1814260;76;26423;-79
2022/10/22 04:20:15;;;;;;;10.93;2.50;;;;;;;;;;1733421;80;27075;-79
2022/10/22 04:22:44;;;;;;;10.47;2.27;;;;;;;;;;1749502;80;26318;-79
2022/10/22 04:25:13;;;;;;;15.83;2.83;;;;;;;;;;1814463;79;26271;-79
2022/10/22 04:27:41;;;;;;;16.37;2.80;;;;;;;;;;1768890;79;26716;-79
2022/10/22 04:30:13;;;;;;;10.53;2.27;;;;;;;;;;1814176;79;26293;-79
2022/10/22 04:32:42;;;;;;;10.13;2.43;;;;;;;;;;1816138;79;26238;-79
2022/10/22 04:35:12;;;;;;;12.20;2.40;;;;;;;;;;1816228;79;27023;-79
2022/10/22 04:37:41;;;;;;;11.63;2.13;;;;;;;;;;1816114;79;26239;-79
2022/10/22 04:40:12;;;;;;;14.13;2.83;;;;;;;;;;1769665;79;26218;-79
2022/10/22 04:42:41;;;;;;;13.37;2.43;;;;;;;;;;1816144;79;26297;-78
2022/10/22 04:45:11;;;;;;;11.17;2.67;;;;;;;;;;1758103;80;26367;-79
2022/10/22 04:47:39;;;;;;;13.10;2.97;;;;;;;;;;1746537;82;26314;-79
2022/10/22 04:50:08;;;;;;;9.47;2.70;;;;;;;;;;1802738;79;26250;-78
2022/10/22 04:52:37;;;;;;;14.33;2.53;;;;;;;;;;1752975;80;26290;-79
2022/10/22 04:55:06;;;;;;;11.50;2.50;;;;;;;;;;1770925;79;26223;-79
2022/10/22 04:57:36;;;;;;;13.87;2.67;;;;;;;;;;1816038;79;26230;-79
2022/10/22 05:00:07;;;;;;;16.87;2.87;;;;;;;;;;1816274;79;26231;-79
2022/10/22 05:02:36;;;;;;;14.97;3.43;;;;;;;;;;1780215;80;26826;-78
2022/10/22 05:05:05;;;;;;;13.53;2.80;;;;;;;;;;1732760;82;26307;-78
2022/10/22 05:07:34;;;;;;;16.47;3.20;;;;;;;;;;1759723;80;27064;-79
2022/10/22 05:10:02;;;;;;;15.03;3.57;;;;;;;;;;1794892;79;26365;-79
2022/10/22 05:12:31;;;;;;;14.80;3.27;;;;;;;;;;1733854;80;26361;-78
2022/10/22 05:14:59;;;;;;;13.37;3.27;;;;;;;;;;1724522;82;26292;-79
2022/10/22 05:17:27;;;;;;;13.13;2.83;;;;;;;;;;1781669;80;26241;-79
2022/10/22 05:19:56;;;;;;;14.93;2.90;;;;;;;;;;1814275;74;27193;-78
2022/10/22 05:22:25;;;;;;;17.10;2.57;;;;;;;;;;1793339;79;26324;-79
2022/10/22 05:24:55;;;;;;;14.90;3.00;;;;;;;;;;1814343;79;26266;-81
2022/10/22 05:27:24;;;;;;;13.27;2.57;;;;;;;;;;1814202;79;26333;-78
2022/10/22 05:29:52;;;;;;;14.43;3.10;;;;;;;;;;1795438;79;26226;-79
2022/10/22 05:32:21;;;;;;;18.20;3.30;;;;;;;;;;1771315;79;26222;-79
2022/10/22 05:34:50;;;;;;;17.37;3.50;;;;;;;;;;1793730;79;26719;-79
2022/10/22 05:37:18;;;;;;;16.87;3.37;;;;;;;;;;1758000;80;26293;-79
2022/10/22 05:39:48;;;;;;;15.30;3.30;;;;;;;;;;1748947;82;26312;-79
2022/10/22 05:42:16;;;;;;;13.80;3.30;;;;;;;;;;1723873;82;26315;-79
2022/10/22 05:44:45;;;;;;;16.03;3.83;;;;;;;;;;1778142;80;26548;-80
2022/10/22 05:47:14;;;;;;;18.17;3.40;;;;;;;;;;1813902;79;26282;-79
2022/10/22 05:49:42;;;;;;;15.10;3.37;;;;;;;;;;1814532;79;26290;-79
2022/10/22 05:52:11;;;;;;;16.57;3.50;;;;;;;;;;1793372;79;26293;-79
2022/10/22 05:54:40;;;;;;;21.63;4.20;;;;;;;;;;1792660;79;26274;-79
2022/10/22 05:57:08;;;;;;;16.60;3.97;;;;;;;;;;1792824;79;26263;-79
2022/10/22 05:59:37;;;;;;;18.73;3.67;;;;;;;;;;1793246;79;26347;-78
2022/10/22 06:02:06;;;;;;;15.67;4.07;;;;;;;;;;1768402;79;26352;-79
2022/10/22 06:04:34;;;;;;;16.57;3.57;;;;;;;;;;1814074;79;26279;-79
2022/10/22 06:07:04;;;;;;;16.67;3.70;;;;;;;;;;1792634;79;26726;-79
2022/10/22 06:09:35;;;;;;;17.93;4.20;;;;;;;;;;1816197;79;26386;-79
2022/10/22 06:12:07;;;;;;;18.80;3.70;;;;;;;;;;1815153;79;27459;-79
2022/10/22 06:14:35;;;;;;;21.10;4.07;;;;;;;;;;1816073;79;26304;-80
2022/10/22 06:17:05;;;;;;;22.20;4.77;;;;;;;;;;1795147;79;26242;-79
2022/10/22 06:19:35;;;;;;;20.27;3.80;;;;;;;;;;1793856;77;26314;-80
2022/10/22 06:22:04;;;;;;;21.00;4.60;;;;;;;;;;1792897;79;26329;-80
2022/10/22 06:24:33;;;;;;;15.50;3.47;;;;;;;;;;1814040;79;26355;-80
2022/10/22 06:27:02;;;;;;;13.93;3.90;;;;;;;;;;1814168;79;26556;-80
2022/10/22 06:29:30;;;;;;;19.50;3.97;;;;;;;;;;1792771;79;26270;-79
2022/10/22 06:31:59;;;;;;;18.23;3.80;;;;;;;;;;1769731;79;26355;-79
2022/10/22 06:34:27;;;;;;;23.53;4.57;;;;;;;;;;1713498;80;26301;-80
2022/10/22 06:36:56;;;;;;;23.53;3.83;;;;;;;;;;1748846;82;26303;-79
2022/10/22 06:39:25;;;;;;;18.03;3.90;;;;;;;;;;1730048;82;26411;-79
2022/10/22 06:41:59;;;;;;;22.23;4.17;;;;;;;;;;1778387;80;26827;-81
2022/10/22 06:44:28;;;;;;;21.43;4.30;;;;;;;;;;1780456;80;26292;-79
2022/10/22 06:46:56;;;;;;;21.73;3.83;;;;;;;;;;1746234;82;26248;-80
2022/10/22 06:49:25;;;;;;;20.77;4.07;;;;;;;;;;1760025;80;26269;-78
2022/10/22 06:51:54;;;;;;;13.57;3.80;;;;;;;;;;1759761;80;26843;-79
2022/10/22 06:54:23;;;;;;;21.87;3.93;;;;;;;;;;1732243;82;26336;-79
2022/10/22 06:56:52;;;;;;;18.43;3.83;;;;;;;;;;1775668;79;26251;-79
2022/10/22 06:59:21;;;;;;;21.80;4.23;;;;;;;;;;1736083;80;26303;-80
2022/10/22 07:01:50;;;;;;;20.63;4.40;;;;;;;;;;1744460;82;26308;-79
2022/10/22 07:04:21;;;;;;;19.43;3.93;;;;;;;;;;1796588;80;26252;-78
2022/10/22 07:06:49;;;;;;;21.67;4.23;;;;;;;;;;1796586;80;26258;-78
2022/10/22 07:09:18;;;;;;;19.93;4.93;;;;;;;;;;1796494;80;26251;-79
2022/10/22 07:11:47;;;;;;;18.57;4.97;;;;;;;;;;1793035;79;26549;-79
2022/10/22 07:14:16;;;;;;;22.00;4.53;;;;;;;;;;1813688;79;26418;-80
2022/10/22 07:16:45;;;;;;;20.03;4.03;;;;;;;;;;1757595;80;27434;-79
2022/10/22 07:19:14;;;;;;;20.07;5.00;;;;;;;;;;1750530;79;26319;-81
2022/10/22 07:21:43;;;;;;;17.30;4.13;;;;;;;;;;1746154;82;26307;-85
2022/10/22 07:24:13;;;;;;;27.97;4.90;;;;;;;;;;1759294;80;26258;-78
2022/10/22 07:26:42;;;;;;;19.77;4.33;;;;;;;;;;1759513;80;26253;-78
2022/10/22 07:29:11;;;;;;;22.93;4.50;;;;;;;;;;1745484;82;26315;-78
2022/10/22 07:31:40;;;;;;;16.87;4.20;;;;;;;;;;1775953;80;26272;-78
2022/10/22 07:34:09;;;;;;;16.77;4.47;;;;;;;;;;1794765;80;26724;-78
2022/10/22 07:36:37;;;;;;;23.70;5.10;;;;;;;;;;1792201;79;26445;-78
2022/10/22 07:39:06;;;;;;;19.43;3.93;;;;;;;;;;1793228;79;26364;-78
2022/10/22 07:41:35;;;;;;;16.40;4.00;;;;;;;;;;1814114;79;26348;-78
2022/10/22 07:44:03;;;;;;;19.83;4.33;;;;;;;;;;1758102;80;26277;-78
2022/10/22 07:46:34;;;;;;;23.00;4.27;;;;;;;;;;1735355;80;26382;-78
2022/10/22 07:49:02;;;;;;;19.13;4.57;;;;;;;;;;1728967;82;26246;-78
2022/10/22 07:51:31;;;;;;;20.60;4.47;;;;;;;;;;1778628;80;26289;-78
2022/10/22 07:53:59;;;;;;;20.93;4.90;;;;;;;;;;1724758;82;26304;-78
2022/10/22 07:56:28;;;;;;;22.57;4.73;;;;;;;;;;1794646;80;26871;-79
2022/10/22 07:58:58;;;;;;;17.07;3.60;;;;;;;;;;1794962;80;26965;-78
2022/10/22 08:01:27;;;;;;;17.00;4.00;;;;;;;;;;1794819;80;26360;-79
2022/10/22 08:03:56;;;;;;;23.30;4.07;;;;;;;;;;1794940;80;26314;-78
2022/10/22 08:06:25;;;;;;;24.10;4.53;;;;;;;;;;1775737;80;26827;-78
2022/10/22 08:08:54;;;;;;;17.50;4.07;;;;;;;;;;1794686;80;26891;-78
2022/10/22 08:11:22;;;;;;;22.83;4.87;;;;;;;;;;1794715;80;26286;-79
2022/10/22 08:13:53;;;;;;;16.67;4.13;;;;;;;;;;1758062;80;26432;-78
2022/10/22 08:16:22;;;;;;;18.13;3.93;;;;;;;;;;1720716;82;26248;-78
2022/10/22 08:18:51;;;;;;;18.67;3.63;;;;;;;;;;1814280;79;26823;-80
2022/10/22 08:21:19;;;;;;;20.80;3.93;;;;;;;;;;1792545;77;26321;-79
2022/10/22 08:23:48;;;;;;;20.43;3.90;;;;;;;;;;1733842;80;26412;-79
2022/10/22 08:26:17;;;;;;;21.07;4.73;;;;;;;;;;1748897;82;26518;-78
2022/10/22 08:28:46;;;;;;;22.70;4.57;;;;;;;;;;1752364;82;26304;-78
2022/10/22 08:31:16;;;;;;;21.57;4.57;;;;;;;;;;1744186;82;26742;-80
2022/10/22 08:33:46;;;;;;;18.87;3.87;;;;;;;;;;1757545;80;26243;-81
2022/10/22 08:36:16;;;;;;;20.13;4.90;;;;;;;;;;1778436;80;26364;-80
2022/10/22 08:38:45;;;;;;;18.77;4.60;;;;;;;;;;1729916;82;26300;-81
2022/10/22 08:41:16;;;;;;;24.13;7.07;;;;;;;;;;1778031;80;26314;-81
2022/10/22 08:44:04;;;;;;;20.33;5.13;;;;;;;;;;1759634;80;26324;-81
2022/10/22 08:46:41;;;;;;;21.23;5.30;;;;;;;;;;1763455;81;26258;-81
2022/10/22 08:49:11;;;;;;;16.90;4.07;;;;;;;;;;1745391;81;26251;-81
2022/10/22 08:51:43;;;;;;;19.57;4.20;;;;;;;;;;1746330;81;26651;-82
2022/10/22 08:54:17;;;;;;;20.70;4.80;;;;;;;;;;1750528;82;26272;-81
2022/10/22 08:56:48;;;;;;;19.60;4.33;;;;;;;;;;1746184;82;26370;-81
2022/10/22 08:59:19;;;;;;;18.63;3.90;;;;;;;;;;1780151;80;26225;-81
2022/10/22 09:01:49;;;;;;;14.67;3.37;;;;;;;;;;1780324;79;26254;-82
2022/10/22 09:04:24;;;;;;;13.73;3.70;;;;;;;;;;1750959;82;26264;-79
2022/10/22 09:06:51;;;;;;;14.37;3.50;;;;;;;;;;1750575;82;26268;-80
2022/10/22 09:09:20;;;;;;;10.43;3.37;;;;;;;;;;1731565;82;26261;-80
2022/10/22 09:11:50;;;;;;;12.70;2.93;;;;;;;;;;1780218;80;26227;-80
2022/10/22 09:14:21;;;;;;;16.33;3.30;;;;;;;;;;1758900;80;26343;-81
2022/10/22 09:16:55;;;;;;;19.13;3.33;;;;;;;;;;1761622;81;26356;-80
2022/10/22 09:19:26;;;;;;;16.97;3.30;;;;;;;;;;1760771;81;26903;-80
2022/10/22 09:21:57;;;;;;;16.13;3.83;;;;;;;;;;1794353;75;26329;-80
2022/10/22 09:24:29;;;;;;;23.10;3.80;;;;;;;;;;1814015;78;26303;-80
2022/10/22 09:26:57;;;;;;;12.70;3.17;;;;;;;;;;1778676;80;26887;-81
2022/10/22 09:29:31;;;;;;;17.20;4.00;;;;;;;;;;1744055;82;26314;-80
2022/10/22 09:32:00;;;;;;;18.07;3.83;;;;;;;;;;1778222;80;24197;-80
2022/10/22 09:34:30;;;;;;;15.33;3.57;;;;;;;;;;1814532;79;26368;-80
2022/10/22 09:36:59;;;;;;;11.73;3.73;;;;;;;;;;1757322;80;26361;-80
2022/10/22 09:39:30;;;;;;;16.37;3.77;;;;;;;;;;1750639;82;26352;-80
2022/10/22 09:41:59;;;;;;;19.17;4.03;;;;;;;;;;1731099;82;26219;-82
2022/10/22 09:44:28;;;;;;;16.43;3.90;;;;;;;;;;1816089;79;26246;-80
2022/10/22 09:46:57;;;;;;;16.33;3.67;;;;;;;;;;1814320;79;26342;-80
2022/10/22 09:49:28;;;;;;;16.30;3.67;;;;;;;;;;1792984;79;26253;-81
2022/10/22 09:51:58;;;;;;;17.67;3.73;;;;;;;;;;1778372;80;26312;-81
2022/10/22 09:54:32;;;;;;;14.27;3.60;;;;;;;;;;1746216;82;26278;-81
2022/10/22 09:57:03;;;;;;;16.40;3.80;;;;;;;;;;1760396;80;26318;-80
2022/10/22 09:59:33;;;;;;;17.10;3.83;;;;;;;;;;1751764;82;26269;-80
2022/10/22 10:02:04;;;;;;;12.90;3.83;;;;;;;;;;1751263;79;24237;-80
2022/10/22 10:04:35;;;;;;;14.60;3.53;;;;;;;;;;1780572;79;24204;-80
2022/10/22 10:07:06;;;;;;;16.00;3.70;;;;;;;;;;1746186;82;26266;-81
2022/10/22 10:09:36;;;;;;;13.77;3.90;;;;;;;;;;1777775;80;26720;-80
2022/10/22 10:12:07;;;;;;;21.00;3.33;;;;;;;;;;1795460;80;26367;-80
2022/10/22 10:14:38;;;;;;;15.70;3.20;;;;;;;;;;1730450;82;24251;-80
2022/10/22 10:17:09;;;;;;;17.27;3.90;;;;;;;;;;1778072;80;26264;-81
2022/10/22 10:19:42;;;;;;;18.07;4.37;;;;;;;;;;1814520;78;26884;-81
2022/10/22 10:22:15;;;;;;;18.90;3.90;;;;;;;;;;1814185;76;26340;-80
2022/10/22 10:24:48;;;;;;;13.43;3.60;;;;;;;;;;1793588;79;24311;-80
2022/10/22 10:27:20;;;;;;;17.47;3.57;;;;;;;;;;1792996;79;24214;-81
2022/10/22 10:29:50;;;;;;;17.93;3.83;;;;;;;;;;1792305;79;26886;-80
2022/10/22 10:32:24;;;;;;;16.73;3.73;;;;;;;;;;1750344;79;24282;-80
2022/10/22 10:34:55;;;;;;;14.00;3.40;;;;;;;;;;1778223;80;24253;-80
2022/10/22 10:37:26;;;;;;;14.57;3.57;;;;;;;;;;1745956;81;24242;-80
2022/10/22 10:39:58;;;;;;;15.77;3.77;;;;;;;;;;1763599;81;26257;-81
2022/10/22 10:42:29;;;;;;;14.20;3.50;;;;;;;;;;1786221;80;26716;-80
2022/10/22 10:45:02;;;;;;;13.93;3.60;;;;;;;;;;1758966;81;24813;-81
2022/10/22 10:47:37;;;;;;;16.23;3.70;;;;;;;;;;1777928;80;26281;-81
2022/10/22 10:50:15;;;;;;;20.43;4.53;;;;;;;;;;1764756;80;24281;-81
2022/10/22 10:52:45;;;;;;;17.40;3.47;;;;;;;;;;1748567;81;24782;-80
2022/10/22 10:55:17;;;;;;;15.47;3.60;;;;;;;;;;1766152;79;24175;-81
2022/10/22 10:57:49;;;;;;;13.17;3.77;;;;;;;;;;1751201;81;26315;-81
2022/10/22 11:00:19;;;;;;;13.70;3.40;;;;;;;;;;1779227;80;26301;-81
2022/10/22 11:03:06;;;;;;;13.27;3.13;;;;;;;;;;1748728;81;24784;-82
2022/10/22 11:05:38;;;;;;;18.00;3.50;;;;;;;;;;1776365;79;26285;-81
2022/10/22 11:08:10;;;;;;;10.70;3.33;;;;;;;;;;1763603;81;24194;-81
2022/10/22 11:10:42;;;;;;;11.57;2.87;;;;;;;;;;1786378;80;24189;-81
2022/10/22 11:13:14;;;;;;;11.50;2.67;;;;;;;;;;1759305;80;24231;-80
2022/10/22 11:15:46;;;;;;;15.57;3.23;;;;;;;;;;1767073;80;25257;-81
2022/10/22 11:18:17;;;;;;;13.10;3.27;;;;;;;;;;1749214;81;24658;-81
2022/10/22 11:20:58;;;;;;;9.40;2.87;;;;;;;;;;1778200;80;24312;-81
2022/10/22 11:23:30;;;;;;;10.27;2.60;;;;;;;;;;1764877;79;24211;-81
2022/10/22 11:26:00;;;;;;;10.37;2.87;;;;;;;;;;1767226;80;24233;-80
2022/10/22 11:28:30;;;;;;;9.67;2.63;;;;;;;;;;1778635;80;26794;-81
2022/10/22 11:31:01;;;;;;;13.17;2.60;;;;;;;;;;1746092;81;24215;-81
2022/10/22 11:33:32;;;;;;;10.00;2.60;;;;;;;;;;1764574;81;24258;-80
2022/10/22 11:36:03;;;;;;;11.00;2.73;;;;;;;;;;1766828;80;24291;-81
2022/10/22 11:38:34;;;;;;;8.53;2.40;;;;;;;;;;1748712;81;24717;-81
2022/10/22 11:41:05;;;;;;;11.23;2.80;;;;;;;;;;1778622;80;24214;-81
2022/10/22 11:43:38;;;;;;;11.10;2.73;;;;;;;;;;1768892;80;24713;-81
2022/10/22 11:46:10;;;;;;;10.63;3.07;;;;;;;;;;1777378;79;26904;-81
2022/10/22 11:48:40;;;;;;;13.90;2.70;;;;;;;;;;1743887;81;24222;-81
2022/10/22 11:51:27;;;;;;;12.60;2.50;;;;;;;;;;1750761;80;25082;-81
2022/10/22 11:53:58;;;;;;;10.23;2.40;;;;;;;;;;1778555;80;24328;-81
2022/10/22 11:56:27;;;;;;;9.63;2.40;;;;;;;;;;1761852;81;24733;-81
2022/10/22 11:58:56;;;;;;;10.83;2.53;;;;;;;;;;1732427;80;24220;-81
2022/10/22 12:01:27;;;;;;;9.63;2.37;;;;;;;;;;1757588;80;24281;-80
2022/10/22 12:04:17;;;;;;;13.83;3.00;;;;;;;;;;1761674;81;24256;-80
2022/10/22 12:07:06;;;;;;;10.67;2.67;;;;;;;;;;1779014;80;24781;-81
2022/10/22 12:09:36;;;;;;;11.47;2.73;;;;;;;;;;1775382;79;24280;-80
2022/10/22 12:12:11;;;;;;;8.57;2.80;;;;;;;;;;1763962;80;24227;-81
2022/10/22 12:14:41;;;;;;;10.03;2.53;;;;;;;;;;1764282;81;24227;-81
2022/10/22 12:17:11;;;;;;;12.10;2.70;;;;;;;;;;1762930;79;24238;-81
2022/10/22 12:19:41;;;;;;;9.30;2.47;;;;;;;;;;1761930;81;24337;-81
2022/10/22 12:22:14;;;;;;;9.70;2.50;;;;;;;;;;1743826;79;24367;-80
2022/10/22 12:24:45;;;;;;;9.20;2.57;;;;;;;;;;1762025;81;24244;-80
2022/10/22 12:27:21;;;;;;;11.40;2.70;;;;;;;;;;1763470;81;24668;-81
2022/10/22 12:29:51;;;;;;;8.87;2.40;;;;;;;;;;1763562;81;24480;-81
2022/10/22 12:32:20;;;;;;;12.70;3.33;;;;;;;;;;1767981;81;24725;-80
2022/10/22 12:34:51;;;;;;;9.63;3.00;;;;;;;;;;1794486;80;26813;-79
2022/10/22 12:37:23;;;;;;;10.87;3.07;;;;;;;;;;1743477;81;24298;-80
2022/10/22 12:39:53;;;;;;;7.73;5.43;;;;;;;;;;1761834;81;24220;-81
2022/10/22 12:42:23;;;;;;;10.97;9.87;;;;;;;;;;1761585;81;24279;-81
2022/10/22 12:44:56;;;;;;;10.37;9.40;;;;;;;;;;1755703;80;24534;-82
2022/10/22 12:47:25;;;;;;;13.27;12.10;;;;;;;;;;1780062;80;26733;-81
2022/10/22 12:49:54;;;;;;;11.30;10.30;;;;;;;;;;1745426;81;27099;-81
2022/10/22 12:52:26;;;;;;;12.43;11.33;;;;;;;;;;1831423;78;24179;-80
2022/10/22 12:54:55;;;;;;;6.97;6.27;;;;;;;;;;1723127;81;24186;-81
2022/10/22 12:57:25;;;;;;;10.33;6.67;;;;;;;;;;1780280;80;24832;-81
2022/10/22 12:59:54;;;;;;;7.70;6.83;;;;;;;;;;1763674;81;26742;-81
2022/10/22 13:02:25;;;;;;;7.50;6.87;;;;;;;;;;1744849;81;24346;-81
2022/10/22 13:05:37;;;;;;;8.60;7.80;;;;;;;;;;1732312;80;24741;-81
2022/10/22 13:11:08;;;;;;;6.47;5.87;;;;;;;17.09;100.00;100024.45;2055202;69;26015;-79
2022/10/22 13:16:43;;;;;;;7.93;6.13;;;;;;;16.97;100.00;100010.98;2009072;71;28149;-79
2022/10/22 13:19:43;;;;;;;9.20;7.17;;;;;;;17.02;100.00;100005.16;1945940;73;24165;-80
2022/10/22 13:26:10;;;;;;;9.20;6.87;;;;;;;16.84;100.00;100002.55;2008976;70;30729;-79
2022/10/22 13:28:45;;;;;;;13.17;7.27;;;;;;;16.83;100.00;99985.48;1961758;72;24229;-79
2022/10/22 13:31:19;;;;;;;11.60;6.60;;;;;;;16.73;100.00;99983.70;1958172;72;24726;-79
2022/10/22 13:36:50;;;;;;;12.03;7.53;;;;;;;16.89;100.00;99993.67;2002964;71;25540;-79
2022/10/22 13:45:22;;;;;;;15.00;7.47;;;;;;;16.65;100.00;99981.81;2056208;69;25640;-80
2022/10/22 13:47:55;;;;;;;10.77;5.87;;;;;;;16.62;100.00;99980.53;1977816;72;24794;-79
2022/10/22 13:50:28;;;;;;;14.17;6.77;;;;;;;16.70;100.00;99974.00;1977019;72;24176;-80
2022/10/22 13:53:00;;;;;;;12.90;6.67;;;;;;;16.91;100.00;99983.73;1977316;72;24152;-80
2022/10/22 13:55:31;;;;;;;13.60;6.80;;;;;;;17.13;100.00;99986.67;1910345;74;24119;-80
2022/10/22 13:58:16;;;;;;;10.07;6.40;;;;;;;16.95;100.00;99985.25;1943336;74;24182;-81
2022/10/22 14:00:49;;;;;;;9.93;7.63;;;;;;;16.96;100.00;99975.67;1910359;74;26708;-79
2022/10/22 14:06:23;;;;;;;14.13;8.10;;;;;;;16.62;100.00;99981.94;2057188;69;25869;-77
2022/10/22 14:11:55;;;;;;;8.43;7.13;;;;;;;16.74;100.00;99976.34;2028983;69;26187;-79
2022/10/22 14:14:27;;;;;;;10.13;7.33;;;;;;;16.79;100.00;99962.11;2008880;71;24128;-78
2022/10/22 14:16:58;;;;;;;9.70;7.33;;;;;;;16.73;100.00;99966.87;1973065;71;24265;-81
2022/10/22 14:19:31;;;;;;;9.97;7.67;;;;;;;16.68;100.00;99968.52;1971489;71;24245;-77
2022/10/22 14:22:04;;;;;;;12.67;10.43;;;;;;;16.58;100.00;99970.36;1914308;73;24677;-78
2022/10/22 14:24:36;;;;;;;10.20;8.73;;;;;;;16.44;100.00;99962.80;1966646;72;24232;-77
2022/10/22 14:27:07;;;;;;;14.87;11.17;;;;;;;16.53;100.00;99964.93;1940903;73;25082;-78
2022/10/22 14:29:39;;;;;;;10.87;9.97;;;;;;;16.40;100.00;99957.07;1987342;71;24140;-77
2022/10/22 14:32:18;;;;;;;11.77;10.67;;;;;;;16.32;100.00;99965.81;2028671;70;24197;-78
2022/10/22 14:34:52;;;;;;;12.47;11.33;;;;;;;16.50;100.00;99965.05;1973346;71;24201;-78
2022/10/22 14:37:23;;;;;;;13.17;12.00;;;;;;;16.47;100.00;99972.77;1968409;71;24215;-78
2022/10/22 14:40:00;;;;;;;14.07;10.67;;;;;;;16.50;100.00;99969.26;1972616;70;24220;-76
2022/10/22 14:42:28;;;;;;;12.67;11.47;;;;;;;16.42;100.00;99967.37;2025947;70;24233;-77
2022/10/22 14:47:58;;;;;;;15.17;11.70;;;;;;;16.45;100.00;99973.67;2057161;69;26077;-77
2022/10/22 14:50:31;;;;;;;14.27;10.70;;;;;;;16.37;100.00;99968.41;2012689;71;24164;-76
2022/10/22 14:53:04;;;;;;;15.87;7.93;;;;;;;16.32;100.00;99961.61;1988955;71;24098;-79
2022/10/22 14:55:37;;;;;;;10.73;7.07;;;;;;;16.28;100.00;99970.47;1946726;73;24185;-80